Time;durP1;ratioP1;P1;durP2;ratioP2;P2;SDS_P1;SDS_P2;PMS_P1;PMS_P2;Temp;Humidity;BMP_temperature;BMP_pressure;BME280_temperature;BME280_humidity;BME280_pressure;Samples;Min_cycle;Max_cycle;Signal;HPM_P1;HPM_P2
2023/05/11 00:01:28;;;;;;;6.53;5.10;;;;;;;14.41;71.16;101367.53;5052678;28;20132;-61
2023/05/11 00:03:58;;;;;;;7.03;5.40;;;;;;;14.40;71.50;101365.91;5053869;28;20045;-61
2023/05/11 00:06:26;;;;;;;6.20;5.15;;;;;;;14.39;71.48;101359.66;5055522;28;20049;-61
2023/05/11 00:08:54;;;;;;;6.43;5.05;;;;;;;14.40;71.29;101358.59;5052427;28;20117;-61
2023/05/11 00:11:22;;;;;;;7.00;5.53;;;;;;;14.39;71.09;101356.13;5053167;28;20136;-61
2023/05/11 00:13:50;;;;;;;8.73;5.82;;;;;;;14.40;71.09;101355.06;5054166;28;20045;-61
2023/05/11 00:16:18;;;;;;;7.10;5.55;;;;;;;14.39;71.27;101356.97;5052551;28;20049;-61
2023/05/11 00:18:46;;;;;;;7.53;5.68;;;;;;;14.39;71.56;101356.13;5055411;28;20053;-61
2023/05/11 00:21:15;;;;;;;7.63;6.47;;;;;;;14.37;71.16;101353.66;5061686;28;20139;-60
2023/05/11 00:23:43;;;;;;;8.38;5.82;;;;;;;14.37;71.12;101359.06;5054996;28;20060;-60
2023/05/11 00:26:11;;;;;;;6.75;5.32;;;;;;;14.38;71.19;101362.59;5058025;28;20078;-60
2023/05/11 00:28:39;;;;;;;7.65;6.03;;;;;;;14.37;71.41;101361.78;5058938;28;20045;-59
2023/05/11 00:31:07;;;;;;;7.47;6.22;;;;;;;14.36;71.05;101359.31;5060916;28;20104;-60
2023/05/11 00:33:35;;;;;;;7.60;6.18;;;;;;;14.37;71.21;101369.06;5054152;28;20049;-61
2023/05/11 00:36:03;;;;;;;7.38;5.05;;;;;;;14.37;71.19;101371.78;5051154;28;20140;-60
2023/05/11 00:38:33;;;;;;;8.48;6.00;;;;;;;14.36;71.20;101370.94;5060887;28;20049;-59
2023/05/11 00:41:01;;;;;;;7.75;5.57;;;;;;;14.36;71.48;101370.13;5056105;28;20125;-63
2023/05/11 00:43:29;;;;;;;9.20;6.20;;;;;;;14.34;71.45;101376.59;5062741;28;20045;-61
2023/05/11 00:45:57;;;;;;;7.40;6.13;;;;;;;14.34;71.44;101371.19;5051388;28;20080;-61
2023/05/11 00:48:25;;;;;;;9.07;5.78;;;;;;;14.33;71.19;101369.53;5054056;28;20052;-61
2023/05/11 00:50:53;;;;;;;9.60;6.70;;;;;;;14.33;71.16;101374.13;5055452;28;20444;-61
2023/05/11 00:53:21;;;;;;;7.60;6.15;;;;;;;14.27;71.26;101364.25;5054487;28;20053;-58
2023/05/11 00:55:51;;;;;;;10.02;6.25;;;;;;;14.32;71.34;101373.28;5059455;28;20053;-60
2023/05/11 00:58:20;;;;;;;10.23;7.22;;;;;;;14.32;71.42;101369.78;5058870;28;20040;-54
2023/05/11 01:00:47;;;;;;;9.40;6.88;;;;;;;14.32;71.55;101375.19;5056111;28;20057;-60
2023/05/11 01:03:17;;;;;;;10.85;7.60;;;;;;;14.30;71.35;101370.00;5055370;28;20125;-61
2023/05/11 01:05:50;;;;;;;8.15;6.07;;;;;;;14.30;71.43;101374.59;5050623;28;20064;-60
2023/05/11 01:08:22;;;;;;;8.45;6.35;;;;;;;14.30;71.23;101372.69;5052949;28;20053;-60
2023/05/11 01:10:58;;;;;;;10.63;7.55;;;;;;;14.23;71.68;101360.34;5050005;28;20054;-60
2023/05/11 01:13:31;;;;;;;11.90;7.00;;;;;;;14.30;71.70;101370.00;5058759;28;20041;-61
2023/05/11 01:16:05;;;;;;;10.90;7.15;;;;;;;14.22;71.50;101361.41;5061159;28;20157;-61
2023/05/11 01:18:38;;;;;;;9.80;7.28;;;;;;;14.22;71.51;101361.41;5051799;28;20057;-61
2023/05/11 01:21:09;;;;;;;12.85;7.40;;;;;;;14.28;71.65;101377.53;5048836;28;20049;-57
2023/05/11 01:23:52;;;;;;;10.00;7.50;;;;;;;14.29;71.67;101378.34;5045495;28;20041;-61
2023/05/11 01:26:35;;;;;;;9.73;7.15;;;;;;;14.29;71.78;101367.53;5049280;28;20268;-61
2023/05/11 01:29:26;;;;;;;11.65;7.72;;;;;;;14.27;71.54;101373.16;5061073;28;20503;-61
2023/05/11 01:31:58;;;;;;;13.18;8.13;;;;;;;14.28;71.54;101374.00;5050710;28;20041;-61
2023/05/11 01:34:30;;;;;;;9.00;7.45;;;;;;;14.18;71.60;101369.16;5058845;28;20041;-61
2023/05/11 01:37:09;;;;;;;10.35;8.05;;;;;;;14.27;71.66;101380.47;5052402;28;20470;-61
2023/05/11 01:39:40;;;;;;;12.88;8.60;;;;;;;14.27;71.81;101372.34;5055991;28;20041;-61
2023/05/11 01:42:09;;;;;;;12.40;8.57;;;;;;;14.27;71.79;101383.16;5054488;28;20352;-61
2023/05/11 01:44:42;;;;;;;11.70;9.35;;;;;;;14.26;71.86;101368.81;5054436;28;20071;-61
2023/05/11 01:47:13;;;;;;;12.55;9.90;;;;;;;14.26;71.65;101374.22;5056703;28;20422;-61
2023/05/11 01:49:44;;;;;;;13.18;9.60;;;;;;;14.25;71.68;101372.56;5051839;28;20108;-61
2023/05/11 01:52:13;;;;;;;11.68;9.10;;;;;;;14.26;71.53;101376.09;5050569;28;20049;-61
2023/05/11 01:54:43;;;;;;;11.70;9.38;;;;;;;14.24;71.47;101379.03;5054556;28;20044;-61
2023/05/11 01:57:12;;;;;;;15.10;11.70;;;;;;;14.25;71.74;101375.28;5057701;28;20045;-61
2023/05/11 01:59:41;;;;;;;13.77;10.32;;;;;;;14.24;71.94;101375.50;5053571;28;20447;-61
2023/05/11 02:02:12;;;;;;;13.98;10.52;;;;;;;14.23;71.90;101377.41;5050751;28;20072;-62
2023/05/11 02:04:41;;;;;;;12.35;9.55;;;;;;;14.23;71.63;101377.41;5052980;28;20060;-60
2023/05/11 02:07:11;;;;;;;15.90;10.65;;;;;;;14.24;71.87;101379.03;5046737;28;20048;-54
2023/05/11 02:09:41;;;;;;;17.88;11.57;;;;;;;14.23;71.81;101366.59;5048918;28;20576;-61
2023/05/11 02:12:11;;;;;;;16.25;11.60;;;;;;;14.23;71.74;101377.41;5054352;28;20084;-60
2023/05/11 02:14:41;;;;;;;15.40;11.40;;;;;;;14.22;71.82;101367.63;5057298;28;20041;-61
2023/05/11 02:17:10;;;;;;;17.27;12.25;;;;;;;14.21;71.94;101370.56;5051146;28;20060;-62
2023/05/11 02:19:42;;;;;;;16.17;11.07;;;;;;;14.20;71.61;101366.22;5051599;28;20110;-61
2023/05/11 02:22:12;;;;;;;17.23;12.10;;;;;;;14.20;71.86;101367.03;5050748;28;20815;-60
2023/05/11 02:24:41;;;;;;;17.65;11.40;;;;;;;14.15;71.40;101356.09;5057113;28;20076;-61
2023/05/11 02:27:09;;;;;;;16.80;10.98;;;;;;;14.20;71.55;101369.75;5055918;28;20120;-59
2023/05/11 02:29:37;;;;;;;15.07;10.70;;;;;;;14.20;71.53;101371.63;5046983;28;20049;-61
2023/05/11 02:32:09;;;;;;;17.77;11.90;;;;;;;14.17;71.48;101367.50;5048845;28;20341;-56
2023/05/11 02:34:42;;;;;;;14.32;11.65;;;;;;;14.18;71.75;101373.75;5054639;28;20045;-61
2023/05/11 02:37:13;;;;;;;17.13;11.55;;;;;;;14.16;71.51;101370.44;5053045;28;20053;-61
2023/05/11 02:39:45;;;;;;;17.33;11.23;;;;;;;14.01;71.49;101344.69;5045813;28;20478;-61
2023/05/11 02:42:18;;;;;;;14.05;11.23;;;;;;;14.17;71.79;101369.41;5052449;28;20049;-60
2023/05/11 02:44:53;;;;;;;16.75;12.02;;;;;;;14.16;71.70;101362.34;5045317;28;20049;-60
2023/05/11 02:47:25;;;;;;;15.65;11.10;;;;;;;14.15;71.62;101366.09;5054258;28;20132;-61
2023/05/11 02:49:57;;;;;;;14.43;11.32;;;;;;;14.14;71.74;101362.56;5054821;28;20083;-59
2023/05/11 02:52:28;;;;;;;16.30;11.50;;;;;;;14.14;71.45;101369.84;5059219;28;20116;-58
2023/05/11 02:54:58;;;;;;;16.05;12.32;;;;;;;14.14;71.96;101365.28;5056279;28;20067;-60
2023/05/11 02:57:27;;;;;;;23.20;13.25;;;;;;;14.13;71.40;101365.50;5048292;28;20049;-61
2023/05/11 02:59:55;;;;;;;19.52;12.18;;;;;;;14.12;71.47;101364.69;5045429;28;20045;-57
2023/05/11 03:02:23;;;;;;;18.90;12.75;;;;;;;14.12;71.48;101371.97;5054393;28;20079;-61
2023/05/11 03:04:51;;;;;;;18.45;12.90;;;;;;;14.11;71.65;101371.16;5054320;28;20075;-61
2023/05/11 03:07:21;;;;;;;17.17;12.48;;;;;;;14.10;71.74;101368.69;5060010;28;20052;-61
2023/05/11 03:09:50;;;;;;;15.75;11.98;;;;;;;14.10;71.73;101374.09;5055786;28;20056;-59
2023/05/11 03:12:18;;;;;;;16.48;11.65;;;;;;;14.10;71.64;101379.50;5054252;28;20073;-61
2023/05/11 03:14:48;;;;;;;18.25;12.13;;;;;;;14.09;71.38;101375.97;5052157;28;20045;-58
2023/05/11 03:17:17;;;;;;;18.58;12.80;;;;;;;14.10;71.76;101379.50;5050203;28;20048;-61
2023/05/11 03:19:46;;;;;;;17.05;11.95;;;;;;;14.09;71.55;101377.84;5052833;28;20136;-61
2023/05/11 03:22:15;;;;;;;20.50;13.50;;;;;;;14.08;71.36;101377.00;5047978;28;20072;-61
2023/05/11 03:24:44;;;;;;;19.48;11.75;;;;;;;14.08;71.15;101384.31;5053202;28;20052;-60
2023/05/11 03:27:13;;;;;;;18.77;12.52;;;;;;;14.07;71.52;101379.94;5050878;28;20539;-61
2023/05/11 03:29:44;;;;;;;15.93;11.13;;;;;;;14.07;71.53;101378.06;5046652;28;20038;-57
2023/05/11 03:32:12;;;;;;;17.33;12.43;;;;;;;14.07;71.58;101385.34;5049978;28;20483;-61
2023/05/11 03:34:40;;;;;;;18.98;12.70;;;;;;;14.06;71.61;101379.13;5046959;28;20049;-61
2023/05/11 03:37:10;;;;;;;18.33;13.15;;;;;;;14.05;71.64;101374.78;5053330;28;20045;-61
2023/05/11 03:39:41;;;;;;;19.23;13.65;;;;;;;14.05;71.37;101374.78;5049005;28;20129;-61
2023/05/11 03:42:13;;;;;;;19.85;13.88;;;;;;;14.04;71.34;101373.13;5058748;28;20112;-61
2023/05/11 03:44:43;;;;;;;18.42;12.63;;;;;;;14.04;71.30;101381.25;5058656;28;20048;-61
2023/05/11 03:47:13;;;;;;;18.55;12.70;;;;;;;14.02;71.61;101372.53;5055529;28;20160;-61
2023/05/11 03:49:42;;;;;;;17.27;12.93;;;;;;;13.96;71.40;101370.75;5055706;28;20144;-61
2023/05/11 03:52:10;;;;;;;20.85;13.32;;;;;;;14.01;71.74;101377.13;5050005;28;20060;-61
2023/05/11 03:54:38;;;;;;;19.95;13.75;;;;;;;14.02;71.29;101380.66;5054750;28;20108;-61
2023/05/11 03:57:05;;;;;;;18.67;14.35;;;;;;;14.01;71.26;101373.59;5054229;28;20069;-61
2023/05/11 03:59:35;;;;;;;19.45;14.45;;;;;;;14.01;71.75;101371.72;5054870;28;20072;-60
2023/05/11 04:02:03;;;;;;;21.25;14.57;;;;;;;14.00;71.66;101371.94;5053715;28;20049;-60
2023/05/11 04:04:31;;;;;;;21.95;15.85;;;;;;;13.98;71.66;101369.47;5062425;28;20626;-62
2023/05/11 04:06:59;;;;;;;21.15;13.68;;;;;;;13.99;71.20;101371.13;5056900;28;20501;-59
2023/05/11 04:09:27;;;;;;;22.17;14.50;;;;;;;13.99;71.40;101373.81;5061631;28;20045;-63
2023/05/11 04:11:55;;;;;;;23.52;16.48;;;;;;;13.98;71.12;101372.19;5058034;28;20545;-58
2023/05/11 04:14:23;;;;;;;21.00;14.30;;;;;;;13.98;71.48;101372.19;5051308;28;20131;-61
2023/05/11 04:16:52;;;;;;;23.65;15.63;;;;;;;13.98;71.61;101374.06;5063876;28;20112;-55
2023/05/11 04:19:20;;;;;;;21.08;14.73;;;;;;;13.98;71.18;101374.06;5053576;28;20067;-61
2023/05/11 04:21:48;;;;;;;20.08;13.98;;;;;;;13.98;71.39;101376.75;5054818;28;20112;-61
2023/05/11 04:24:16;;;;;;;24.27;16.65;;;;;;;13.97;71.42;101383.22;5054606;28;20075;-60
2023/05/11 04:26:43;;;;;;;24.70;15.30;;;;;;;13.96;71.19;101382.41;5052886;28;20613;-61
2023/05/11 04:29:11;;;;;;;24.35;15.65;;;;;;;13.96;71.22;101381.56;5057393;28;20132;-61
2023/05/11 04:31:39;;;;;;;25.50;15.25;;;;;;;13.97;71.23;101380.50;5052740;28;20053;-60
2023/05/11 04:34:08;;;;;;;26.73;15.82;;;;;;;13.95;71.15;101379.94;5057174;28;20482;-61
2023/05/11 04:36:36;;;;;;;24.92;15.23;;;;;;;13.95;71.05;101380.75;5062126;28;20045;-61
2023/05/11 04:39:04;;;;;;;21.20;14.55;;;;;;;13.95;71.44;101382.63;5054242;28;20377;-61
2023/05/11 04:41:34;;;;;;;25.30;15.48;;;;;;;13.94;71.03;101381.81;5063108;28;20053;-61
2023/05/11 04:44:02;;;;;;;20.40;14.38;;;;;;;13.94;71.38;101381.81;5057534;28;20072;-58
2023/05/11 04:46:30;;;;;;;20.88;14.15;;;;;;;13.94;71.04;101387.19;5054939;28;20064;-63
2023/05/11 04:48:57;;;;;;;21.17;13.98;;;;;;;13.94;71.29;101386.38;5061620;28;20049;-60
2023/05/11 04:51:27;;;;;;;24.08;16.75;;;;;;;13.93;71.16;101388.25;5060211;28;20493;-60
2023/05/11 04:53:55;;;;;;;23.88;15.35;;;;;;;13.94;70.99;101394.50;5049612;28;20446;-59
2023/05/11 04:56:22;;;;;;;20.88;14.25;;;;;;;13.94;70.99;101403.41;5056410;28;20067;-61
2023/05/11 04:58:50;;;;;;;23.17;14.57;;;;;;;13.93;71.32;101400.94;5050608;28;20136;-60
2023/05/11 05:01:18;;;;;;;22.00;13.20;;;;;;;13.94;71.39;101402.59;5054950;28;20075;-60
2023/05/11 05:03:48;;;;;;;19.48;13.70;;;;;;;13.93;71.00;101404.47;5050845;28;20045;-57
2023/05/11 05:06:16;;;;;;;22.73;15.40;;;;;;;13.94;71.28;101405.28;5051840;28;20053;-60
2023/05/11 05:08:45;;;;;;;24.05;15.30;;;;;;;13.93;71.26;101412.56;5058300;28;20063;-60
2023/05/11 05:11:13;;;;;;;23.58;14.82;;;;;;;13.92;71.14;101415.50;5055396;28;20049;-61
2023/05/11 05:13:41;;;;;;;24.60;15.65;;;;;;;13.92;71.10;101413.63;5055866;28;20051;-63
2023/05/11 05:16:10;;;;;;;24.77;15.30;;;;;;;13.92;71.26;101418.22;4706933;28;9999745;-64
2023/05/11 05:18:38;;;;;;;23.23;15.32;;;;;;;13.92;71.27;101416.34;5057911;28;20049;-62
2023/05/11 05:21:06;;;;;;;24.23;15.60;;;;;;;13.92;71.39;101415.50;5055604;28;20051;-61
2023/05/11 05:23:34;;;;;;;23.42;14.85;;;;;;;13.92;71.08;101423.63;5056914;28;20057;-60
2023/05/11 05:26:03;;;;;;;21.25;14.50;;;;;;;13.92;71.11;101427.16;5050899;28;20079;-61
2023/05/11 05:28:31;;;;;;;22.73;14.25;;;;;;;13.91;71.38;101430.91;5058254;28;20049;-61
2023/05/11 05:30:58;;;;;;;23.98;15.02;;;;;;;13.91;71.24;101422.78;5046086;28;20168;-61
2023/05/11 05:33:26;;;;;;;22.33;15.07;;;;;;;13.92;71.34;101426.31;5047850;28;20068;-61
2023/05/11 05:35:54;;;;;;;24.15;14.35;;;;;;;13.91;71.54;101428.19;5050610;28;20053;-54
2023/05/11 05:38:22;;;;;;;25.33;14.48;;;;;;;13.93;71.16;101436.06;5058353;28;20048;-60
2023/05/11 05:40:50;;;;;;;19.88;13.60;;;;;;;13.91;71.53;101425.50;5057851;28;20067;-61
2023/05/11 05:43:19;;;;;;;23.40;14.60;;;;;;;13.92;71.73;101429.03;5059244;28;20092;-60
2023/05/11 05:45:47;;;;;;;21.60;13.98;;;;;;;13.92;71.23;101432.56;5053915;28;20120;-59
2023/05/11 05:48:15;;;;;;;23.15;14.38;;;;;;;13.92;71.30;101439.84;5051576;28;20080;-58
2023/05/11 05:50:43;;;;;;;19.65;13.60;;;;;;;13.91;71.58;101430.91;5056771;28;20049;-58
2023/05/11 05:53:11;;;;;;;19.52;12.85;;;;;;;13.92;71.32;101439.84;5058663;28;20079;-59
2023/05/11 05:55:38;;;;;;;21.17;12.95;;;;;;;13.92;71.01;101439.84;5050318;28;20138;-57
2023/05/11 05:58:06;;;;;;;21.45;13.15;;;;;;;13.93;71.43;101441.47;5046463;28;20093;-59
2023/05/11 06:00:36;;;;;;;20.27;13.65;;;;;;;13.92;71.48;101442.53;5055687;28;20060;-61
2023/05/11 06:03:04;;;;;;;22.67;13.57;;;;;;;13.93;71.69;101449.59;5051761;28;20644;-57
2023/05/11 06:05:32;;;;;;;19.17;13.98;;;;;;;13.93;71.66;101452.28;5045601;28;20054;-60
2023/05/11 06:08:00;;;;;;;19.92;12.95;;;;;;;13.95;71.68;101452.88;5050602;28;20132;-62
2023/05/11 06:10:37;;;;;;;23.27;13.48;;;;;;;13.96;71.66;101447.25;5046767;28;20121;-60
2023/05/11 06:13:05;;;;;;;25.55;14.40;;;;;;;13.97;72.29;101442.66;5058993;28;20053;-59
2023/05/11 06:15:33;;;;;;;22.45;13.52;;;;;;;13.91;72.13;101440.88;5059585;28;20049;-55
2023/05/11 06:18:02;;;;;;;21.63;13.90;;;;;;;13.97;71.99;101448.91;5050373;28;20208;-59
2023/05/11 06:20:32;;;;;;;20.20;12.15;;;;;;;13.94;71.61;101441.25;5050015;28;20056;-50
2023/05/11 06:22:59;;;;;;;21.95;13.52;;;;;;;13.99;71.62;101457.59;5061667;28;20121;-59
2023/05/11 06:25:27;;;;;;;21.70;14.05;;;;;;;13.99;71.85;101454.91;5060523;28;20135;-56
2023/05/11 06:27:55;;;;;;;23.27;13.65;;;;;;;13.99;71.97;101454.91;5060726;28;20040;-59
2023/05/11 06:30:23;;;;;;;28.63;14.95;;;;;;;13.99;72.07;101454.06;5060481;28;20049;-59
2023/05/11 06:32:51;;;;;;;34.17;17.30;;;;;;;14.00;72.20;101463.84;5060231;28;20106;-60
2023/05/11 06:35:21;;;;;;;27.80;15.13;;;;;;;13.98;72.06;101455.94;5050028;28;20045;-60
2023/05/11 06:37:49;;;;;;;26.92;16.42;;;;;;;13.99;72.08;101464.88;5058265;28;20044;-60
2023/05/11 06:40:16;;;;;;;29.98;17.13;;;;;;;13.99;71.87;101462.19;5061607;28;20137;-59
2023/05/11 06:42:45;;;;;;;28.77;17.58;;;;;;;13.98;71.87;101460.53;5057201;28;20057;-59
2023/05/11 06:45:12;;;;;;;33.30;17.40;;;;;;;14.02;71.77;101467.97;5060653;28;20082;-60
2023/05/11 06:47:41;;;;;;;30.33;17.75;;;;;;;14.06;72.28;101464.78;5047978;28;20045;-59
2023/05/11 06:50:09;;;;;;;32.70;18.25;;;;;;;14.09;71.85;101469.75;5059490;28;20045;-60
2023/05/11 06:52:39;;;;;;;41.03;21.77;;;;;;;14.13;72.07;101468.22;5060188;28;20079;-59
2023/05/11 06:55:07;;;;;;;34.70;20.08;;;;;;;14.12;71.48;101475.50;5059104;28;20389;-53
2023/05/11 06:57:35;;;;;;;37.05;21.40;;;;;;;14.14;71.87;101473.41;5055924;28;20190;-60
2023/05/11 07:00:04;;;;;;;34.58;20.00;;;;;;;14.15;71.79;101475.06;5051654;28;20055;-60
2023/05/11 07:02:32;;;;;;;38.92;21.45;;;;;;;14.17;71.88;101478.34;5057627;28;20482;-62
2023/05/11 07:05:00;;;;;;;40.60;22.70;;;;;;;14.17;72.00;101481.06;5058767;28;20052;-64
2023/05/11 07:07:28;;;;;;;38.95;22.17;;;;;;;14.18;71.66;101482.69;5057138;28;20544;-62
2023/05/11 07:09:57;;;;;;;45.45;23.80;;;;;;;14.17;71.79;101481.06;5056819;28;20056;-62
2023/05/11 07:12:25;;;;;;;41.72;24.42;;;;;;;14.20;71.67;101479.78;5059224;28;20053;-59
2023/05/11 07:14:53;;;;;;;44.15;25.63;;;;;;;14.24;71.55;101478.25;5058611;28;20055;-60
2023/05/11 07:17:21;;;;;;;46.40;25.15;;;;;;;14.26;71.62;101478.84;5058408;28;20041;-61
2023/05/11 07:19:51;;;;;;;40.25;25.65;;;;;;;14.27;71.46;101478.63;5059132;28;20087;-61
2023/05/11 07:22:18;;;;;;;50.67;27.27;;;;;;;14.29;71.53;101475.69;5056068;28;20063;-62
2023/05/11 07:24:46;;;;;;;47.78;27.08;;;;;;;14.20;71.73;101474.38;5055880;28;20120;-62
2023/05/11 07:27:16;;;;;;;56.00;28.48;;;;;;;14.28;71.57;101477.56;4706083;28;10000015;-61
2023/05/11 07:29:44;;;;;;;57.60;30.38;;;;;;;14.27;71.60;101481.31;5056952;28;20072;-61
2023/05/11 07:32:12;;;;;;;50.13;28.15;;;;;;;14.19;71.53;101468.13;5052879;28;20520;-60
2023/05/11 07:34:40;;;;;;;49.10;26.92;;;;;;;14.26;71.54;101490.47;5056902;28;20267;-60
2023/05/11 07:37:08;;;;;;;52.88;30.42;;;;;;;14.25;71.73;101491.53;5055094;28;20057;-58
2023/05/11 07:39:36;;;;;;;45.78;26.50;;;;;;;14.25;71.62;101490.72;5059181;28;20136;-60
2023/05/11 07:42:04;;;;;;;50.08;27.70;;;;;;;14.24;71.54;101492.59;5057759;28;20041;-62
2023/05/11 07:44:33;;;;;;;66.47;32.20;;;;;;;14.23;71.61;101492.81;5053499;28;20104;-63
2023/05/11 07:47:02;;;;;;;56.70;29.83;;;;;;;14.23;71.63;101487.41;5056608;28;20048;-59
2023/05/11 07:49:29;;;;;;;55.03;30.95;;;;;;;14.22;71.65;101494.69;5057389;28;20045;-59
2023/05/11 07:52:10;;;;;;;47.72;29.63;;;;;;;14.22;71.62;101499.28;5055663;28;20367;-61
2023/05/11 07:54:39;;;;;;;54.42;30.50;;;;;;;14.22;71.59;101499.28;5054625;28;20041;-60
2023/05/11 07:57:07;;;;;;;61.75;32.42;;;;;;;14.21;71.71;101500.34;5058713;28;20056;-60
2023/05/11 07:59:36;;;;;;;56.63;30.70;;;;;;;14.21;71.64;101503.03;5058851;28;20041;-59
2023/05/11 08:02:06;;;;;;;58.33;32.03;;;;;;;14.22;71.77;101499.28;5058180;28;20105;-60
2023/05/11 08:04:35;;;;;;;76.82;42.13;;;;;;;14.23;72.91;101501.75;5055297;28;20044;-60
2023/05/11 08:07:02;;;;;;;90.22;47.78;;;;;;;14.22;73.09;101500.09;5057851;28;20072;-59
2023/05/11 08:09:31;;;;;;;94.28;48.88;;;;;;;14.29;72.95;101500.84;5058200;28;20124;-60
2023/05/11 08:12:00;;;;;;;99.25;50.67;;;;;;;14.42;72.92;101505.25;5057766;28;20261;-58
2023/05/11 08:14:28;;;;;;;98.97;52.20;;;;;;;14.55;72.48;101501.53;5058356;28;20077;-54
2023/05/11 08:16:57;;;;;;;97.55;51.58;;;;;;;14.76;71.50;101503.69;5055783;28;20065;-59
2023/05/11 08:19:25;;;;;;;98.18;51.63;;;;;;;14.92;71.01;101500.28;5057068;28;20189;-59
2023/05/11 08:21:53;;;;;;;91.35;47.55;;;;;;;15.06;70.74;101509.00;5057183;28;20048;-59
2023/05/11 08:24:21;;;;;;;102.57;51.55;;;;;;;15.24;69.55;101502.63;5058199;28;20049;-59
2023/05/11 08:26:49;;;;;;;93.32;48.65;;;;;;;15.39;69.42;101502.97;5055905;28;20078;-55
2023/05/11 08:29:17;;;;;;;81.70;43.85;;;;;;;15.51;68.78;101506.50;5054534;28;20056;-59
2023/05/11 08:31:44;;;;;;;90.57;47.00;;;;;;;15.52;68.63;101500.00;5059080;28;20045;-61
2023/05/11 08:34:14;;;;;;;77.63;43.13;;;;;;;15.42;68.24;101501.69;5052788;28;20122;-62
2023/05/11 08:36:46;;;;;;;80.28;43.28;;;;;;;15.27;69.04;101502.16;5057595;28;20045;-61
2023/05/11 08:39:15;;;;;;;83.32;44.00;;;;;;;15.13;69.53;101496.16;5056987;28;20099;-61
2023/05/11 08:42:04;;;;;;;83.03;45.83;;;;;;;14.99;69.62;101500.16;5058308;28;20041;-61
2023/05/11 08:44:32;;;;;;;75.05;43.65;;;;;;;14.87;69.79;101502.88;5050434;28;20056;-58
2023/05/11 08:47:01;;;;;;;78.70;42.22;;;;;;;14.79;69.75;101494.28;5060328;28;20076;-58
2023/05/11 08:49:51;;;;;;;83.80;43.25;;;;;;;14.74;70.50;101496.84;5060828;28;20043;-60
2023/05/11 08:52:19;;;;;;;75.20;42.45;;;;;;;14.72;70.60;101498.97;5059012;28;20037;-52
2023/05/11 08:54:47;;;;;;;79.97;41.83;;;;;;;14.58;70.94;101490.25;5057055;28;20049;-59
2023/05/11 08:57:15;;;;;;;75.70;39.53;;;;;;;14.64;71.17;101500.13;5061415;28;20071;-59
2023/05/11 08:59:45;;;;;;;82.85;42.60;;;;;;;14.61;71.37;101508.72;5059041;28;20049;-59
2023/05/11 09:02:16;;;;;;;76.70;42.22;;;;;;;14.57;71.54;101507.53;5060161;28;20049;-58
2023/05/11 09:04:46;;;;;;;79.32;40.40;;;;;;;14.53;71.03;101511.75;5057040;28;20049;-59
2023/05/11 09:07:18;;;;;;;81.88;43.03;;;;;;;14.49;72.25;101511.41;5061631;28;20486;-59
2023/05/11 09:09:46;;;;;;;78.85;41.28;;;;;;;14.47;71.68;101513.50;5059434;28;20108;-58
2023/05/11 09:12:14;;;;;;;71.38;39.53;;;;;;;14.45;72.47;101515.63;5057376;28;20077;-60
2023/05/11 09:14:42;;;;;;;66.90;37.28;;;;;;;14.44;72.44;101521.25;5054528;28;20112;-58
2023/05/11 09:17:10;;;;;;;67.40;36.58;;;;;;;14.41;72.73;101525.22;5060873;28;20055;-60
2023/05/11 09:19:56;;;;;;;70.70;39.70;;;;;;;14.42;72.40;101517.97;5061125;28;20081;-59
2023/05/11 09:22:26;;;;;;;66.90;39.58;;;;;;;14.43;73.31;101519.59;5060197;28;20626;-60
2023/05/11 09:24:58;;;;;;;74.18;40.90;;;;;;;14.40;73.00;101518.16;5055987;28;20070;-61
2023/05/11 09:27:26;;;;;;;70.95;40.22;;;;;;;14.40;72.99;101526.28;5060778;28;20059;-55
2023/05/11 09:29:54;;;;;;;65.43;38.05;;;;;;;14.28;72.64;101507.31;5054926;28;20055;-56
2023/05/11 09:32:22;;;;;;;64.80;38.15;;;;;;;14.39;72.69;101521.91;5053154;28;20123;-62
2023/05/11 09:34:50;;;;;;;72.15;38.67;;;;;;;14.41;72.26;101513.56;5058455;28;20049;-57
2023/05/11 09:37:19;;;;;;;64.07;36.83;;;;;;;14.43;72.27;101519.59;5061865;28;20053;-60
2023/05/11 09:39:54;;;;;;;62.03;35.30;;;;;;;14.45;72.62;101522.91;5049319;28;20064;-59
2023/05/11 09:42:42;;;;;;;71.97;37.30;;;;;;;14.47;72.20;101516.22;5043816;28;20054;-60
2023/05/11 09:45:11;;;;;;;63.63;35.78;;;;;;;14.49;72.37;101518.69;5048757;28;20118;-60
2023/05/11 09:47:40;;;;;;;63.42;33.60;;;;;;;14.52;72.09;101518.22;5045436;28;20172;-60
2023/05/11 09:50:16;;;;;;;61.03;32.92;;;;;;;14.51;72.15;101522.81;5061498;28;20048;-60
2023/05/11 09:52:52;;;;;;;58.92;31.40;;;;;;;14.52;72.02;101524.47;5043559;28;20063;-60
2023/05/11 09:55:21;;;;;;;50.13;31.23;;;;;;;14.53;72.11;101514.47;5056147;28;20140;-56
2023/05/11 09:57:54;;;;;;;55.97;30.60;;;;;;;14.53;71.93;101525.28;5062587;28;20045;-60
2023/05/11 10:00:24;;;;;;;45.55;26.95;;;;;;;14.52;71.49;101519.03;5047433;28;20524;-60
2023/05/11 10:03:02;;;;;;;44.60;26.42;;;;;;;14.53;71.58;101527.97;5062017;28;20041;-61
2023/05/11 10:05:31;;;;;;;46.65;24.55;;;;;;;14.50;71.24;101529.28;5053217;28;20049;-61
2023/05/11 10:08:00;;;;;;;46.35;24.25;;;;;;;14.51;71.46;101521.97;5057604;28;20055;-61
2023/05/11 10:10:31;;;;;;;44.45;22.13;;;;;;;14.50;71.06;101523.84;5044227;28;20053;-64
2023/05/11 10:13:00;;;;;;;42.05;22.98;;;;;;;14.50;71.08;101517.63;5042986;28;20115;-61
2023/05/11 10:15:32;;;;;;;37.38;22.35;;;;;;;14.49;71.29;101519.50;5056226;28;20052;-60
2023/05/11 10:18:01;;;;;;;37.08;20.63;;;;;;;14.52;70.99;101529.03;5050385;28;20076;-61
2023/05/11 10:20:29;;;;;;;39.70;22.17;;;;;;;14.52;71.00;101526.34;5048255;28;20099;-60
2023/05/11 10:22:57;;;;;;;37.75;20.77;;;;;;;14.52;70.75;101529.03;5050318;28;20133;-62
2023/05/11 10:25:26;;;;;;;33.92;19.15;;;;;;;14.45;70.82;101521.03;5048055;28;20041;-59
2023/05/11 10:27:57;;;;;;;44.97;21.08;;;;;;;14.55;70.71;101526.69;5062534;28;20072;-59
2023/05/11 10:30:25;;;;;;;39.25;21.98;;;;;;;14.56;70.90;101527.53;5051264;28;20041;-56
2023/05/11 10:32:55;;;;;;;38.25;20.33;;;;;;;14.57;70.75;101523.75;5054383;28;20500;-60
2023/05/11 10:35:23;;;;;;;32.58;20.48;;;;;;;14.58;70.64;101520.81;5046516;28;20049;-55
2023/05/11 10:37:51;;;;;;;37.33;20.50;;;;;;;14.59;70.64;101524.34;5044614;28;20099;-61
2023/05/11 10:40:19;;;;;;;34.50;19.15;;;;;;;14.59;70.39;101524.34;5057625;28;20133;-61
2023/05/11 10:43:13;;;;;;;34.47;20.85;;;;;;;14.61;70.50;101522.25;5058476;28;20407;-60
2023/05/11 10:45:50;;;;;;;38.42;20.95;;;;;;;14.61;70.38;101524.94;5052651;28;20146;-62
2023/05/11 10:49:00;;;;;;;40.28;20.63;;;;;;;14.63;70.40;101517.41;5058828;28;20064;-60
2023/05/11 10:51:45;;;;;;;38.70;21.75;;;;;;;14.56;70.61;101500.47;5045081;28;20043;-58
2023/05/11 10:54:26;;;;;;;41.90;22.10;;;;;;;14.64;70.33;101509.06;5046832;28;20064;-61
2023/05/11 10:57:08;;;;;;;41.83;23.27;;;;;;;14.67;70.23;101509.66;5057433;28;20049;-59
2023/05/11 11:00:09;;;;;;;39.45;22.65;;;;;;;14.68;70.39;101505.91;5048738;28;20044;-60
2023/05/11 11:02:37;;;;;;;40.00;24.65;;;;;;;14.69;69.69;101504.84;5053655;28;20037;-60
2023/05/11 11:05:09;;;;;;;46.15;25.42;;;;;;;14.68;69.69;101501.31;5050564;28;20108;-60
2023/05/11 11:07:57;;;;;;;45.58;25.95;;;;;;;14.67;69.25;101510.50;5043913;28;20103;-60
2023/05/11 11:10:33;;;;;;;44.20;27.80;;;;;;;14.65;69.21;101502.59;5043244;28;20050;-60
2023/05/11 11:13:03;;;;;;;45.70;27.17;;;;;;;14.65;69.36;101501.78;5051401;28;20052;-60
2023/05/11 11:16:09;;;;;;;53.00;28.23;;;;;;;14.68;69.20;101506.72;5054445;28;20113;-60
2023/05/11 11:18:39;;;;;;;52.08;28.17;;;;;;;14.69;69.26;101500.25;5055411;28;20113;-60
2023/05/11 11:21:07;;;;;;;48.88;27.00;;;;;;;14.71;69.38;101494.63;5056758;28;20498;-60
2023/05/11 11:23:43;;;;;;;51.95;28.50;;;;;;;14.72;69.27;101496.25;5055719;28;20055;-60
2023/05/11 11:26:14;;;;;;;50.42;28.83;;;;;;;14.67;69.40;101488.03;5040004;28;20130;-60